createdAt,value
2022-09-03T00:01:03.254Z,13.22
2022-09-03T00:02:38.312Z,13.28
2022-09-03T00:04:25.662Z,13.30
2022-09-03T00:06:01.228Z,13.33
2022-09-03T00:07:45.188Z,13.35
2022-09-03T00:09:23.068Z,13.30
2022-09-03T00:11:01.359Z,13.29
2022-09-03T00:12:34.579Z,13.25
2022-09-03T00:14:09.837Z,13.17
2022-09-03T00:15:42.408Z,13.12
2022-09-03T00:17:16.590Z,13.04
2022-09-03T00:18:53.096Z,13.00
2022-09-03T00:20:28.735Z,12.99
2022-09-03T00:22:07.257Z,12.94
2022-09-03T00:23:41.548Z,12.88
2022-09-03T00:25:17.465Z,12.82
2022-09-03T00:26:55.659Z,12.80
2022-09-03T00:28:36.783Z,12.75
2022-09-03T00:30:10.215Z,12.66
2022-09-03T00:31:48.361Z,12.60
2022-09-03T00:33:22.380Z,12.60
2022-09-03T00:34:57.949Z,12.60
2022-09-03T00:36:42.234Z,12.61
2022-09-03T00:38:14.502Z,12.56
2022-09-03T00:39:46.679Z,12.50
2022-09-03T00:41:33.701Z,12.47
2022-09-03T00:43:38.675Z,12.42
2022-09-03T00:45:17.488Z,12.36
2022-09-03T00:46:56.520Z,12.29
2022-09-03T00:48:32.355Z,12.24
2022-09-03T00:50:19.631Z,12.20
2022-09-03T00:51:52.061Z,12.15
2022-09-03T00:53:30.959Z,12.08
2022-09-03T00:55:13.996Z,12.02
2022-09-03T00:56:55.404Z,12.01
2022-09-03T00:58:27.867Z,12.02
2022-09-03T01:00:03.050Z,11.99
2022-09-03T01:01:46.034Z,11.94
2022-09-03T01:03:18.263Z,11.89
2022-09-03T01:05:03.966Z,11.86
2022-09-03T01:06:38.424Z,11.83
2022-09-03T01:08:16.463Z,11.89
2022-09-03T01:10:14.443Z,11.94
2022-09-03T01:11:47.249Z,12.00
2022-09-03T01:13:58.025Z,12.01
2022-09-03T01:15:30.234Z,11.99
2022-09-03T01:17:09.376Z,11.95
2022-09-03T01:18:44.506Z,11.89
2022-09-03T01:20:19.278Z,11.85
2022-09-03T01:21:52.214Z,11.83
2022-09-03T01:23:35.996Z,11.79
2022-09-03T01:25:23.562Z,11.74
2022-09-03T01:27:15.247Z,11.72
2022-09-03T01:28:47.703Z,11.71
2022-09-03T01:30:20.879Z,11.66
2022-09-03T01:31:53.141Z,11.61
2022-09-03T01:33:46.252Z,11.55
2022-09-03T01:35:19.350Z,11.48
2022-09-03T01:37:13.192Z,11.43
2022-09-03T01:38:48.032Z,11.37
2022-09-03T01:40:20.389Z,11.34
2022-09-03T01:42:14.093Z,11.32
2022-09-03T01:43:54.652Z,11.33
2022-09-03T01:45:34.445Z,11.30
2022-09-03T01:47:20.786Z,11.25
2022-09-03T01:49:11.720Z,11.20
2022-09-03T01:51:02.522Z,11.20
2022-09-03T01:52:46.865Z,11.19
2022-09-03T01:54:24.635Z,11.20
2022-09-03T01:56:06.167Z,11.25
2022-09-03T01:57:45.920Z,11.32
2022-09-03T01:59:23.913Z,11.37
2022-09-03T02:00:59.918Z,11.41
2022-09-03T02:02:32.751Z,11.44
2022-09-03T02:04:14.288Z,11.49
2022-09-03T02:05:47.861Z,11.48
2022-09-03T02:07:20.671Z,11.46
2022-09-03T02:08:53.539Z,11.48
2022-09-03T02:10:30.178Z,11.50
2022-09-03T02:12:06.553Z,11.51
2022-09-03T02:13:40.982Z,11.49
2022-09-03T02:15:15.404Z,11.45
2022-09-03T02:16:47.561Z,11.40
2022-09-03T02:18:22.382Z,11.40
2022-09-03T02:19:55.069Z,11.40
2022-09-03T02:21:30.827Z,11.44
2022-09-03T02:23:03.197Z,11.48
2022-09-03T02:24:35.298Z,11.56
2022-09-03T02:26:08.570Z,11.68
2022-09-03T02:27:41.549Z,11.77
2022-09-03T02:29:15.272Z,11.86
2022-09-03T02:30:48.385Z,11.93
2022-09-03T02:32:22.846Z,11.98
2022-09-03T02:33:57.112Z,11.98
2022-09-03T02:35:29.343Z,11.98
2022-09-03T02:37:12.393Z,11.95
2022-09-03T02:38:45.055Z,11.98
2022-09-03T02:40:17.932Z,11.98
2022-09-03T02:41:54.773Z,11.97
2022-09-03T02:43:48.309Z,11.99
2022-09-03T02:45:25.169Z,12.00
2022-09-03T02:46:58.575Z,11.95
2022-09-03T02:48:30.773Z,11.95
2022-09-03T02:50:02.872Z,11.95
2022-09-03T02:51:42.507Z,11.94
2022-09-03T02:53:17.174Z,11.95
2022-09-03T02:54:49.553Z,12.00
2022-09-03T02:56:25.986Z,12.06
2022-09-03T02:58:00.163Z,12.09
2022-09-03T02:59:32.249Z,12.09
2022-09-03T03:01:04.878Z,12.06
2022-09-03T03:02:37.116Z,12.02
2022-09-03T03:04:09.656Z,11.98
2022-09-03T03:05:43.969Z,11.91
2022-09-03T03:07:16.116Z,11.85
2022-09-03T03:08:49.896Z,11.85
2022-09-03T03:10:24.760Z,11.96
2022-09-03T03:11:56.923Z,12.05
2022-09-03T03:13:29.978Z,12.13
2022-09-03T03:15:02.120Z,12.15
2022-09-03T03:16:37.062Z,12.15
2022-09-03T03:18:12.098Z,12.16
2022-09-03T03:19:44.193Z,12.22
2022-09-03T03:21:18.313Z,12.36
2022-09-03T03:22:50.877Z,12.47
2022-09-03T03:24:22.994Z,12.55
2022-09-03T03:26:00.757Z,12.64
2022-09-03T03:27:32.859Z,12.66
2022-09-03T03:29:05.303Z,12.63
2022-09-03T03:30:40.358Z,12.62
2022-09-03T03:32:12.514Z,12.64
2022-09-03T03:33:44.791Z,12.66
2022-09-03T03:35:17.246Z,12.66
2022-09-03T03:36:49.326Z,12.62
2022-09-03T03:38:23.749Z,12.62
2022-09-03T03:39:56.029Z,12.55
2022-09-03T03:41:31.395Z,12.46
2022-09-03T03:43:03.463Z,12.40
2022-09-03T03:44:35.514Z,12.39
2022-09-03T03:46:07.749Z,12.42
2022-09-03T03:47:40.124Z,12.43
2022-09-03T03:49:14.427Z,12.45
2022-09-03T03:50:47.504Z,12.46
2022-09-03T03:52:19.584Z,12.45
2022-09-03T03:53:54.334Z,12.47
2022-09-03T03:55:27.144Z,12.49
2022-09-03T03:56:59.318Z,12.56
2022-09-03T03:58:32.277Z,12.57
2022-09-03T04:00:05.020Z,12.56
2022-09-03T04:01:46.639Z,12.61
2022-09-03T04:03:19.244Z,12.64
2022-09-03T04:04:51.313Z,12.67
2022-09-03T04:06:24.305Z,12.69
2022-09-03T04:07:56.375Z,12.67
2022-09-03T04:09:28.526Z,12.72
2022-09-03T04:11:01.438Z,12.73
2022-09-03T04:12:33.885Z,12.74
2022-09-03T04:14:05.988Z,12.74
2022-09-03T04:15:38.188Z,12.73
2022-09-03T04:17:10.465Z,12.73
2022-09-03T04:18:42.995Z,12.69
2022-09-03T04:20:15.062Z,12.65
2022-09-03T04:21:47.252Z,12.64
2022-09-03T04:23:19.350Z,12.65
2022-09-03T04:24:51.767Z,12.62
2022-09-03T04:26:25.787Z,12.64
2022-09-03T04:27:58.383Z,12.64
2022-09-03T04:29:31.374Z,12.64
2022-09-03T04:31:08.104Z,12.66
2022-09-03T04:32:53.565Z,12.68
2022-09-03T04:34:26.058Z,12.68
2022-09-03T04:36:02.776Z,12.70
2022-09-03T04:37:34.978Z,12.71
2022-09-03T04:39:07.148Z,12.73
2022-09-03T04:40:39.570Z,12.75
2022-09-03T04:42:11.683Z,12.77
2022-09-03T04:43:44.292Z,12.79
2022-09-03T04:45:18.939Z,12.79
2022-09-03T04:46:51.370Z,12.81
2022-09-03T04:48:23.626Z,12.83
2022-09-03T04:49:55.897Z,12.85
2022-09-03T04:51:28.574Z,12.89
2022-09-03T04:53:07.136Z,12.91
2022-09-03T04:54:39.988Z,12.93
2022-09-03T04:56:21.867Z,12.97
2022-09-03T04:57:53.930Z,13.00
2022-09-03T04:59:28.599Z,13.03
2022-09-03T05:01:07.141Z,13.08
2022-09-03T05:02:39.325Z,13.11
2022-09-03T05:04:11.534Z,13.17
2022-09-03T05:05:53.703Z,13.23
2022-09-03T05:07:28.490Z,13.30
2022-09-03T05:09:01.031Z,13.37
2022-09-03T05:10:33.216Z,13.45
2022-09-03T05:12:05.643Z,13.51
2022-09-03T05:13:37.825Z,13.62
2022-09-03T05:15:09.971Z,14.03
2022-09-03T05:16:42.394Z,14.95
2022-09-03T05:18:27.021Z,16.09
2022-09-03T05:19:59.148Z,16.97
2022-09-03T05:21:31.486Z,17.81
2022-09-03T05:23:03.961Z,18.55
2022-09-03T05:24:36.350Z,19.15
2022-09-03T05:26:11.861Z,19.63
2022-09-03T05:27:43.954Z,20.10
2022-09-03T05:29:16.193Z,20.16
2022-09-03T05:30:57.909Z,20.28
2022-09-03T05:32:31.085Z,20.60
2022-09-03T05:34:04.058Z,20.85
2022-09-03T05:35:36.302Z,21.05
2022-09-03T05:37:09.100Z,21.07
2022-09-03T05:38:41.235Z,21.31
2022-09-03T05:40:13.327Z,21.72
2022-09-03T05:41:45.836Z,21.96
2022-09-03T05:43:18.316Z,21.87
2022-09-03T05:44:50.390Z,21.93
2022-09-03T05:46:31.705Z,21.88
2022-09-03T05:48:06.357Z,22.11
2022-09-03T05:49:38.789Z,22.45
2022-09-03T05:51:12.311Z,22.67
2022-09-03T05:52:44.446Z,22.71
2022-09-03T05:54:16.547Z,22.94
2022-09-03T05:55:55.097Z,23.05
2022-09-03T05:57:27.366Z,23.05
2022-09-03T05:59:05.783Z,22.86
2022-09-03T06:00:37.949Z,22.88
2022-09-03T06:02:10.442Z,22.81
2022-09-03T06:03:45.467Z,23.02
2022-09-03T06:05:19.060Z,23.26
2022-09-03T06:06:51.177Z,23.46
2022-09-03T06:08:23.627Z,23.69
2022-09-03T06:09:56.365Z,23.80
2022-09-03T06:11:29.605Z,24.02
2022-09-03T06:13:03.965Z,23.95
2022-09-03T06:14:36.407Z,24.00
2022-09-03T06:16:10.086Z,23.88
2022-09-03T06:17:42.775Z,23.72
2022-09-03T06:19:15.194Z,23.39
2022-09-03T06:20:54.032Z,23.25
2022-09-03T06:22:28.482Z,23.45
2022-09-03T06:24:00.528Z,23.85
2022-09-03T06:25:32.623Z,24.10
2022-09-03T06:27:07.440Z,24.17
2022-09-03T06:28:41.271Z,23.92
2022-09-03T06:30:13.978Z,23.84
2022-09-03T06:31:47.694Z,23.88
2022-09-03T06:33:20.169Z,24.05
2022-09-03T06:34:52.306Z,24.38
2022-09-03T06:36:26.557Z,24.57
2022-09-03T06:37:59.147Z,24.55
2022-09-03T06:39:31.682Z,24.48
2022-09-03T06:41:05.617Z,24.39
2022-09-03T06:42:37.953Z,24.63
2022-09-03T06:44:11.843Z,24.96
2022-09-03T06:45:44.812Z,25.24
2022-09-03T06:47:16.980Z,25.39
2022-09-03T06:48:51.183Z,25.70
2022-09-03T06:50:23.533Z,25.40
2022-09-03T06:51:55.959Z,25.22
2022-09-03T06:53:32.086Z,25.14
2022-09-03T06:55:04.569Z,25.35
2022-09-03T06:56:40.216Z,25.66
2022-09-03T06:58:17.023Z,26.06
2022-09-03T06:59:49.665Z,26.20
2022-09-03T07:01:23.472Z,26.39
2022-09-03T07:03:02.903Z,26.79
2022-09-03T07:04:35.363Z,26.65
2022-09-03T07:06:12.248Z,26.54
2022-09-03T07:07:46.251Z,26.59
2022-09-03T07:09:19.224Z,26.81
2022-09-03T07:10:51.692Z,26.71
2022-09-03T07:12:26.025Z,26.65
2022-09-03T07:13:58.543Z,26.50
2022-09-03T07:15:30.705Z,26.34
2022-09-03T07:17:03.947Z,26.29
2022-09-03T07:18:36.731Z,26.44
2022-09-03T07:20:08.963Z,26.73
2022-09-03T07:21:46.530Z,26.63
2022-09-03T07:23:21.475Z,26.91
2022-09-03T07:24:53.596Z,26.96
2022-09-03T07:26:32.722Z,26.74
2022-09-03T07:28:06.950Z,26.84
2022-09-03T07:29:39.425Z,26.65
2022-09-03T07:31:16.431Z,26.31
2022-09-03T07:32:51.720Z,26.01
2022-09-03T07:34:27.155Z,26.10
2022-09-03T07:36:10.473Z,26.03
2022-09-03T07:37:43.004Z,25.80
2022-09-03T07:39:16.473Z,25.70
2022-09-03T07:40:48.798Z,25.66
2022-09-03T07:42:21.238Z,25.69
2022-09-03T07:43:53.806Z,25.87
2022-09-03T07:45:29.060Z,25.82
2022-09-03T07:47:01.194Z,25.61
2022-09-03T07:48:37.317Z,25.63
2022-09-03T07:50:09.851Z,25.58
2022-09-03T07:51:42.002Z,25.53
2022-09-03T07:53:15.620Z,25.45
2022-09-03T07:54:48.078Z,25.56
2022-09-03T07:56:20.229Z,25.52
2022-09-03T07:57:59.560Z,25.28
2022-09-03T07:59:31.755Z,25.07
2022-09-03T08:01:05.717Z,24.99
2022-09-03T08:02:37.897Z,24.91
2022-09-03T08:04:11.081Z,24.82
2022-09-03T08:05:43.233Z,24.81
2022-09-03T08:07:17.897Z,25.01
2022-09-03T08:08:54.258Z,25.17
2022-09-03T08:10:28.543Z,24.97
2022-09-03T08:12:00.644Z,24.77
2022-09-03T08:13:33.107Z,24.68
2022-09-03T08:15:05.402Z,24.75
2022-09-03T08:16:39.165Z,24.84
2022-09-03T08:18:11.418Z,24.62
2022-09-03T08:19:46.199Z,24.45
2022-09-03T08:21:20.089Z,24.41
2022-09-03T08:22:52.371Z,24.46
2022-09-03T08:24:26.392Z,24.19
2022-09-03T08:26:02.045Z,23.98
2022-09-03T08:27:35.290Z,23.89
2022-09-03T08:29:07.501Z,23.83
2022-09-03T08:30:39.607Z,23.99
2022-09-03T08:32:12.022Z,24.15
2022-09-03T08:33:50.928Z,24.11
2022-09-03T08:35:23.255Z,23.93
2022-09-03T08:36:55.393Z,23.87
2022-09-03T08:38:29.185Z,23.79
2022-09-03T08:40:01.493Z,23.77
2022-09-03T08:41:52.626Z,23.72
2022-09-03T08:43:25.100Z,23.54
2022-09-03T08:45:02.708Z,23.36
2022-09-03T08:46:42.517Z,23.17
2022-09-03T08:48:21.663Z,23.00
2022-09-03T08:50:04.727Z,22.93
2022-09-03T08:51:40.411Z,22.92
2022-09-03T08:53:16.009Z,22.99
2022-09-03T08:54:49.287Z,22.85
2022-09-03T08:56:24.479Z,22.56
2022-09-03T08:58:05.882Z,22.25
2022-09-03T08:59:38.059Z,22.04
2022-09-03T09:01:11.499Z,21.74
2022-09-03T09:02:52.584Z,21.40
2022-09-03T09:04:31.288Z,21.19
2022-09-03T09:06:19.161Z,21.12
2022-09-03T09:08:00.886Z,21.06
2022-09-03T09:09:57.523Z,20.96
2022-09-03T09:11:36.177Z,20.86
2022-09-03T09:13:20.403Z,20.75
2022-09-03T09:15:03.687Z,20.77
2022-09-03T09:16:51.074Z,20.77
2022-09-03T09:18:42.066Z,20.78
2022-09-03T09:20:19.115Z,20.78
2022-09-03T09:21:57.328Z,20.80
2022-09-03T09:23:32.166Z,20.83
2022-09-03T09:25:09.401Z,20.86
2022-09-03T09:26:43.019Z,20.88
2022-09-03T09:28:22.869Z,20.91
2022-09-03T09:29:55.946Z,20.96
2022-09-03T09:31:31.005Z,21.07
2022-09-03T09:33:03.589Z,21.14
2022-09-03T09:34:37.131Z,21.25
2022-09-03T09:36:11.809Z,21.33
2022-09-03T09:37:51.703Z,21.35
2022-09-03T09:39:24.616Z,21.39
2022-09-03T09:40:59.898Z,21.39
2022-09-03T09:42:32.158Z,21.42
2022-09-03T09:44:07.066Z,21.44
2022-09-03T09:45:40.893Z,21.44
2022-09-03T09:47:12.960Z,21.50
2022-09-03T09:48:50.142Z,21.54
2022-09-03T09:50:25.011Z,21.59
2022-09-03T09:52:08.050Z,21.66
2022-09-03T09:53:40.911Z,21.68
2022-09-03T09:55:20.438Z,21.71
2022-09-03T09:56:59.623Z,21.77
2022-09-03T09:58:33.220Z,21.83
2022-09-03T10:00:09.331Z,21.84
2022-09-03T10:01:47.207Z,21.87
2022-09-03T10:03:19.796Z,21.91
2022-09-03T10:04:52.367Z,21.93
2022-09-03T10:06:44.722Z,22.00
2022-09-03T10:08:21.286Z,22.05
2022-09-03T10:10:00.202Z,22.14
2022-09-03T10:11:32.601Z,22.21
2022-09-03T10:13:13.690Z,22.24
2022-09-03T10:14:51.952Z,22.25
2022-09-03T10:16:28.088Z,22.25
2022-09-03T10:18:00.166Z,22.24
2022-09-03T10:20:12.418Z,22.24
2022-09-03T10:21:47.882Z,22.27
2022-09-03T10:23:22.765Z,22.27
2022-09-03T10:25:02.669Z,22.26
2022-09-03T10:26:36.656Z,22.26
2022-09-03T10:28:13.345Z,22.24
2022-09-03T10:29:50.958Z,22.23
2022-09-03T10:31:30.904Z,22.25
2022-09-03T10:33:12.813Z,22.34
2022-09-03T10:34:54.482Z,22.42
2022-09-03T10:36:35.002Z,22.53
2022-09-03T10:38:27.446Z,22.56
2022-09-03T10:39:59.987Z,22.59
2022-09-03T10:41:41.592Z,22.63
2022-09-03T10:43:19.514Z,22.67
2022-09-03T10:45:00.830Z,22.71
2022-09-03T10:46:48.203Z,22.77
2022-09-03T10:48:33.164Z,22.79
2022-09-03T10:50:20.337Z,22.81
2022-09-03T10:52:01.714Z,22.88
2022-09-03T10:53:50.076Z,22.92
2022-09-03T10:55:40.338Z,22.95
2022-09-03T10:57:31.726Z,22.98
2022-09-03T10:59:19.690Z,23.05
2022-09-03T11:00:59.663Z,23.15
2022-09-03T11:02:47.558Z,23.18
2022-09-03T11:04:40.107Z,23.23
2022-09-03T11:06:24.885Z,23.26
2022-09-03T11:08:23.616Z,23.25
2022-09-03T11:10:08.830Z,23.25
2022-09-03T11:11:44.321Z,23.25
2022-09-03T11:13:16.739Z,23.28
2022-09-03T11:14:52.663Z,23.31
2022-09-03T11:16:37.072Z,23.31
2022-09-03T11:18:22.305Z,23.33
2022-09-03T11:20:05.232Z,23.38
2022-09-03T11:21:38.683Z,23.40
2022-09-03T11:23:13.520Z,23.44
2022-09-03T11:24:50.326Z,23.43
2022-09-03T11:26:26.456Z,23.40
2022-09-03T11:28:01.392Z,23.40
2022-09-03T11:29:42.683Z,23.43
2022-09-03T11:31:17.964Z,23.50
2022-09-03T11:32:59.906Z,23.55
2022-09-03T11:34:33.940Z,23.59
2022-09-03T11:36:06.625Z,23.61
2022-09-03T11:37:48.749Z,23.64
2022-09-03T11:39:27.006Z,23.71
2022-09-03T11:40:59.370Z,23.72
2022-09-03T11:42:34.058Z,23.74
2022-09-03T11:44:18.598Z,23.79
2022-09-03T11:46:11.979Z,23.84
2022-09-03T11:47:44.475Z,23.89
2022-09-03T11:49:25.684Z,23.89
2022-09-03T11:50:58.058Z,23.83
2022-09-03T11:52:40.422Z,23.73
2022-09-03T11:54:12.620Z,23.68
2022-09-03T11:55:54.691Z,23.68
2022-09-03T11:57:31.725Z,23.70
2022-09-03T11:59:03.946Z,23.81
2022-09-03T12:00:38.590Z,23.85
2022-09-03T12:02:27.295Z,23.86
2022-09-03T12:04:03.452Z,23.91
2022-09-03T12:05:54.301Z,23.86
2022-09-03T12:07:30.153Z,23.87
2022-09-03T12:09:02.585Z,23.91
2022-09-03T12:10:50.905Z,23.99
2022-09-03T12:12:38.271Z,24.12
2022-09-03T12:14:13.923Z,24.23
2022-09-03T12:15:55.226Z,24.34
2022-09-03T12:17:30.807Z,24.41
2022-09-03T12:19:16.626Z,24.44
2022-09-03T12:21:00.250Z,24.46
2022-09-03T12:22:38.716Z,24.56
2022-09-03T12:24:13.425Z,24.63
2022-09-03T12:25:47.487Z,24.65
2022-09-03T12:27:26.551Z,24.61
2022-09-03T12:28:59.908Z,24.65
2022-09-03T12:30:32.411Z,24.79
2022-09-03T12:32:09.299Z,24.94
2022-09-03T12:33:42.575Z,25.03
2022-09-03T12:38:04.555Z,25.13
2022-09-03T12:39:13.826Z,25.00
2022-09-03T12:42:38.398Z,24.79
2022-09-03T12:44:12.524Z,24.73
2022-09-03T12:47:41.694Z,24.79
2022-09-03T12:49:30.819Z,24.83
2022-09-03T12:52:56.452Z,24.81
2022-09-03T12:54:29.257Z,24.73
2022-09-03T12:56:02.735Z,24.66
2022-09-03T12:57:45.797Z,24.62
2022-09-03T12:59:21.370Z,24.66
2022-09-03T13:00:56.364Z,24.72
2022-09-03T13:02:33.182Z,24.80
2022-09-03T13:04:15.511Z,24.89
2022-09-03T13:05:50.660Z,24.90
2022-09-03T13:07:29.819Z,24.87
2022-09-03T13:09:06.507Z,24.88
2022-09-03T13:10:42.082Z,24.87
2022-09-03T13:12:28.532Z,24.84
2022-09-03T13:14:07.243Z,24.77
2022-09-03T13:15:40.309Z,24.72
2022-09-03T13:17:18.593Z,24.73
2022-09-03T13:19:09.237Z,24.75
2022-09-03T13:20:41.758Z,24.76
2022-09-03T13:22:32.678Z,24.79
2022-09-03T13:24:19.962Z,24.85
2022-09-03T13:26:03.976Z,24.94
2022-09-03T13:27:56.762Z,25.09
2022-09-03T13:29:41.654Z,25.21
2022-09-03T13:31:20.680Z,25.19
2022-09-03T13:33:04.700Z,25.12
2022-09-03T13:34:41.466Z,25.18
2022-09-03T13:36:18.210Z,25.25
2022-09-03T13:38:20.033Z,25.30
2022-09-03T13:40:00.118Z,25.37
2022-09-03T13:41:41.293Z,25.42
2022-09-03T13:43:32.689Z,25.53
2022-09-03T13:45:07.937Z,25.69
2022-09-03T13:46:53.715Z,25.87
2022-09-03T13:48:47.424Z,26.04
2022-09-03T13:50:26.800Z,26.14
2022-09-03T13:52:01.946Z,26.17
2022-09-03T13:53:50.524Z,26.28
2022-09-03T13:55:31.392Z,26.27
2022-09-03T13:57:03.637Z,26.25
2022-09-03T13:58:41.771Z,26.23
2022-09-03T14:00:22.032Z,26.15
2022-09-03T14:02:05.051Z,26.17
2022-09-03T14:03:48.959Z,26.20
2022-09-03T14:05:31.681Z,26.13
2022-09-03T14:07:08.594Z,26.08
2022-09-03T14:08:58.684Z,26.01
2022-09-03T14:10:50.193Z,25.90
2022-09-03T14:12:29.224Z,25.82
2022-09-03T14:14:13.482Z,25.74
2022-09-03T14:15:51.886Z,25.66
2022-09-03T14:17:24.002Z,25.54
2022-09-03T14:18:59.607Z,25.43
2022-09-03T14:20:38.504Z,25.33
2022-09-03T14:22:10.537Z,25.25
2022-09-03T14:23:48.564Z,25.16
2022-09-03T14:25:22.507Z,25.09
2022-09-03T14:26:56.570Z,25.05
2022-09-03T14:28:34.465Z,24.97
2022-09-03T14:30:09.870Z,24.94
2022-09-03T14:32:00.180Z,24.84
2022-09-03T14:33:55.568Z,24.74
2022-09-03T14:35:36.761Z,24.63
2022-09-03T14:37:14.842Z,24.62
2022-09-03T14:39:05.981Z,24.60
2022-09-03T14:40:50.410Z,24.61
2022-09-03T14:42:36.893Z,24.63
2022-09-03T14:44:24.997Z,24.62
2022-09-03T14:45:58.584Z,24.60
2022-09-03T14:47:53.869Z,24.63
2022-09-03T14:49:26.364Z,24.73
2022-09-03T14:50:58.679Z,24.74
2022-09-03T14:52:33.633Z,24.75
2022-09-03T14:54:14.609Z,24.76
2022-09-03T14:56:05.225Z,24.75
2022-09-03T14:57:43.380Z,24.72
2022-09-03T14:59:18.726Z,24.74
2022-09-03T15:01:13.303Z,24.75
2022-09-03T15:03:05.742Z,24.85
2022-09-03T15:04:50.531Z,24.92
2022-09-03T15:06:37.301Z,25.03
2022-09-03T15:08:15.908Z,25.17
2022-09-03T15:10:07.602Z,25.32
2022-09-03T15:11:48.122Z,25.46
2022-09-03T15:13:23.145Z,25.60
2022-09-03T15:15:06.449Z,25.71
2022-09-03T15:16:48.240Z,25.81
2022-09-03T15:18:32.644Z,25.82
2022-09-03T15:20:11.370Z,25.81
2022-09-03T15:21:53.332Z,25.80
2022-09-03T15:23:25.927Z,25.87
2022-09-03T15:25:27.340Z,25.93
2022-09-03T15:27:08.519Z,25.86
2022-09-03T15:28:59.472Z,25.71
2022-09-03T15:30:36.978Z,25.59
2022-09-03T15:32:18.176Z,25.56
2022-09-03T15:33:54.651Z,25.52
2022-09-03T15:35:33.739Z,25.37
2022-09-03T15:37:12.087Z,25.22
2022-09-03T15:38:46.730Z,25.02
2022-09-03T15:40:28.855Z,24.91
2022-09-03T15:42:15.761Z,24.78
2022-09-03T15:43:49.775Z,24.63
2022-09-03T15:45:52.229Z,24.50
2022-09-03T15:47:51.484Z,24.36
2022-09-03T15:49:30.023Z,24.26
2022-09-03T15:51:07.627Z,24.23
2022-09-03T15:52:40.473Z,24.18
2022-09-03T15:54:18.807Z,24.14
2022-09-03T15:56:14.458Z,24.11
2022-09-03T15:58:10.900Z,24.05
2022-09-03T15:59:54.575Z,23.96
2022-09-03T16:01:33.744Z,23.87
2022-09-03T16:03:10.969Z,23.77
2022-09-03T16:04:43.348Z,23.70
2022-09-03T16:06:44.291Z,23.66
2022-09-03T16:08:34.103Z,23.60
2022-09-03T16:10:30.783Z,23.54
2022-09-03T16:12:15.613Z,23.46
2022-09-03T16:14:21.797Z,23.42
2022-09-03T16:16:04.159Z,23.37
2022-09-03T16:17:44.668Z,23.32
2022-09-03T16:19:17.446Z,23.26
2022-09-03T16:21:08.246Z,23.21
2022-09-03T16:22:44.648Z,23.13
2022-09-03T16:24:25.912Z,23.05
2022-09-03T16:26:03.944Z,22.96
2022-09-03T16:27:38.346Z,22.87
2022-09-03T16:29:15.154Z,22.80
2022-09-03T16:31:04.149Z,22.74
2022-09-03T16:32:46.645Z,22.68
2022-09-03T16:34:28.139Z,22.63
2022-09-03T16:36:15.983Z,22.57
2022-09-03T16:37:56.801Z,22.52
2022-09-03T16:39:28.902Z,22.46
2022-09-03T16:41:13.574Z,22.40
2022-09-03T16:42:54.207Z,22.36
2022-09-03T16:44:46.033Z,22.28
2022-09-03T16:46:28.841Z,22.23
2022-09-03T16:48:10.095Z,22.18
2022-09-03T16:49:48.263Z,22.14
2022-09-03T16:51:39.416Z,22.09
2022-09-03T16:53:34.230Z,22.05
2022-09-03T16:55:17.563Z,21.98
2022-09-03T16:57:13.290Z,21.94
2022-09-03T16:58:51.198Z,21.87
2022-09-03T17:00:28.149Z,21.82
2022-09-03T17:02:39.508Z,21.77
2022-09-03T17:04:23.689Z,21.69
2022-09-03T17:05:55.763Z,21.62
2022-09-03T17:07:33.990Z,21.58
2022-09-03T17:09:24.946Z,21.53
2022-09-03T17:11:15.750Z,21.47
2022-09-03T17:13:08.983Z,21.40
2022-09-03T17:14:44.105Z,21.35
2022-09-03T17:16:24.660Z,21.31
2022-09-03T17:18:04.133Z,21.25
2022-09-03T17:19:39.297Z,21.17
2022-09-03T17:21:11.398Z,21.12
2022-09-03T17:22:51.179Z,21.07
2022-09-03T17:24:53.960Z,21.02
2022-09-03T17:26:41.515Z,20.93
2022-09-03T17:28:39.764Z,20.84
2022-09-03T17:30:31.184Z,20.74
2022-09-03T17:32:10.494Z,20.68
2022-09-03T17:34:01.451Z,20.61
2022-09-03T17:35:46.440Z,20.52
2022-09-03T17:37:18.568Z,20.43
2022-09-03T17:39:09.598Z,20.34
2022-09-03T17:40:42.188Z,20.28
2022-09-03T17:42:17.380Z,20.25
2022-09-03T17:44:06.490Z,20.20
2022-09-03T17:45:41.362Z,20.15
2022-09-03T17:47:29.189Z,20.12
2022-09-03T17:49:02.722Z,20.10
2022-09-03T17:50:43.731Z,20.09
2022-09-03T17:52:34.897Z,20.08
2022-09-03T17:54:07.124Z,20.06
2022-09-03T17:55:42.354Z,20.03
2022-09-03T17:57:17.575Z,20.00
2022-09-03T17:58:54.022Z,19.99
2022-09-03T18:00:31.981Z,19.98
2022-09-03T18:02:16.364Z,19.99
2022-09-03T18:03:54.570Z,20.00
2022-09-03T18:05:32.806Z,19.98
2022-09-03T18:07:15.400Z,19.96
2022-09-03T18:08:53.442Z,19.95
2022-09-03T18:10:32.171Z,19.95
2022-09-03T18:12:23.049Z,19.94
2022-09-03T18:14:07.117Z,19.96
2022-09-03T18:16:02.490Z,19.94
2022-09-03T18:17:58.037Z,19.89
2022-09-03T18:20:04.361Z,19.88
2022-09-03T18:21:57.611Z,19.84
2022-09-03T18:23:52.541Z,19.81
2022-09-03T18:25:43.773Z,19.77
2022-09-03T18:27:40.626Z,19.75
2022-09-03T18:29:36.674Z,19.71
2022-09-03T18:31:32.389Z,19.67
2022-09-03T18:33:23.230Z,19.63
2022-09-03T18:35:14.264Z,19.62
2022-09-03T18:37:04.959Z,19.62
2022-09-03T18:38:56.534Z,19.59
2022-09-03T18:40:54.825Z,19.56
2022-09-03T18:42:54.477Z,19.56
2022-09-03T18:44:48.514Z,19.55
2022-09-03T18:48:01.081Z,19.56
2022-09-03T18:49:06.852Z,19.57
2022-09-03T18:51:11.549Z,19.56
2022-09-03T18:53:08.046Z,19.60
2022-09-03T18:55:16.995Z,19.60
2022-09-03T18:57:09.052Z,19.59
2022-09-03T18:59:18.800Z,19.55
2022-09-03T19:01:15.602Z,19.52
2022-09-03T19:03:25.215Z,19.51
2022-09-03T19:05:16.458Z,19.53
2022-09-03T19:07:13.293Z,19.50
2022-09-03T19:09:16.423Z,19.48
2022-09-03T19:11:10.648Z,19.45
2022-09-03T19:13:16.671Z,19.44
2022-09-03T19:15:22.153Z,19.43
2022-09-03T19:17:31.629Z,19.43
2022-09-03T19:19:33.338Z,19.43
2022-09-03T19:21:31.532Z,19.44
2022-09-03T19:23:24.095Z,19.44
2022-09-03T19:25:29.692Z,19.45
2022-09-03T19:27:51.756Z,19.44
2022-09-03T19:29:57.443Z,19.41
2022-09-03T19:31:47.936Z,19.40
2022-09-03T19:33:49.820Z,19.40
2022-09-03T19:35:44.952Z,19.40
2022-09-03T19:37:38.497Z,19.35
2022-09-03T19:39:54.709Z,19.31
2022-09-03T19:41:53.574Z,19.26
2022-09-03T19:44:01.034Z,19.21
2022-09-03T19:46:10.455Z,19.11
2022-09-03T19:48:20.649Z,19.04
2022-09-03T19:50:41.656Z,19.01
2022-09-03T19:52:39.211Z,18.97
2022-09-03T19:54:30.277Z,18.97
2022-09-03T19:56:33.617Z,18.95
2022-09-03T19:58:42.117Z,18.95
2022-09-03T20:00:34.454Z,18.96
2022-09-03T20:02:25.242Z,18.99
2022-09-03T20:04:17.570Z,18.99
2022-09-03T20:06:11.388Z,19.01
2022-09-03T20:08:03.074Z,19.03
2022-09-03T20:09:56.841Z,19.01
2022-09-03T20:11:30.399Z,19.01
2022-09-03T20:13:05.678Z,19.03
2022-09-03T20:14:37.942Z,19.04
2022-09-03T20:16:16.760Z,19.07
2022-09-03T20:18:12.325Z,19.08
2022-09-03T20:20:01.582Z,19.13
2022-09-03T20:21:38.759Z,19.20
2022-09-03T20:23:15.446Z,19.25
2022-09-03T20:24:58.840Z,19.31
2022-09-03T20:26:36.989Z,19.37
2022-09-03T20:28:12.129Z,19.42
2022-09-03T20:30:03.442Z,19.46
2022-09-03T20:31:55.321Z,19.54
2022-09-03T20:33:33.460Z,19.60
2022-09-03T20:35:13.074Z,19.63
2022-09-03T20:36:52.387Z,19.63
2022-09-03T20:38:43.029Z,19.63
2022-09-03T20:40:29.195Z,19.62
2022-09-03T20:42:11.026Z,19.61
2022-09-03T20:44:01.941Z,19.62
2022-09-03T20:45:34.532Z,19.61
2022-09-03T20:47:29.510Z,19.60
2022-09-03T20:49:13.037Z,19.57
2022-09-03T20:50:53.706Z,19.53
2022-09-03T20:52:38.898Z,19.47
2022-09-03T20:54:17.343Z,19.43
2022-09-03T20:55:54.834Z,19.39
2022-09-03T20:57:32.955Z,19.38
2022-09-03T20:59:14.178Z,19.35
2022-09-03T21:00:54.221Z,19.33
2022-09-03T21:02:36.030Z,19.28
2022-09-03T21:04:14.181Z,19.23
2022-09-03T21:05:56.234Z,19.16
2022-09-03T21:07:29.275Z,19.10
2022-09-03T21:09:25.267Z,19.04
2022-09-03T21:11:19.029Z,18.98
2022-09-03T21:12:57.926Z,18.97
2022-09-03T21:14:34.950Z,18.95
2022-09-03T21:16:07.112Z,18.97
2022-09-03T21:17:56.038Z,18.97
2022-09-03T21:19:34.552Z,18.96
2022-09-03T21:21:15.617Z,18.94
2022-09-03T21:22:52.763Z,18.92
2022-09-03T21:24:54.891Z,18.88
2022-09-03T21:26:29.345Z,18.80
2022-09-03T21:28:03.344Z,18.75
2022-09-03T21:29:41.441Z,18.70
2022-09-03T21:31:23.951Z,18.66
2022-09-03T21:33:02.779Z,18.57
2022-09-03T21:34:50.641Z,18.47
2022-09-03T21:36:30.347Z,18.43